Details From LOWI - Innsbruck Kranebitten
To UDYZ - Zvartnots
Flight Number -
Tags Generated
Created
Modified
Stats Distance 1,484 nm / 2,749 km
Max Altitude 0 ft / 0 m
Waypoints 7
Social Downloads 0
Likes 0
Share VATSIM

Download

Looking for another format? Having issues loading an existing format? Contact us
Advertisement - Login to hide

Notes

Generated

Route

LOWI NALOX NEPOT TLC MAPUT ZVR UDYZ

ID Type Via Altitude Latitude Longitude Leg Dist Tot Dist Heading (true) Name
O LOWI APT - 0 ft / 0 m 47.25883˚ 11.33091˚ - 0 nm - -
NALOX FIX - 0 ft / 0 m 46.86959˚ 16.82007˚ 225 nm 225 nm 94° / 98° -
NEPOT FIX - 0 ft / 0 m 45.96030˚ 23.08808˚ 265 nm 490 nm 100° / 104° -
TLC NDB - 0 ft / 0 m 44.99257˚ 28.73636˚ 244 nm 735 nm 102° / 106° TULCEA NDB
MAPUT FIX - 0 ft / 0 m 43.56638˚ 34.39514˚ 257 nm 993 nm 107° / 111° -
ZVR VOR - 0 ft / 0 m 40.14719˚ 44.36696˚ 490 nm 1484 nm 111° / 118° YEREVAN VOR-DME
O UDYZ APT - 0 ft / 0 m 40.14715˚ 44.37329˚ 0 nm 1484 nm 90° / 90° -

Altitude Profile

Advertisement - Login to hide

Weather


0- 5 10 15 20 25 30 35+ Temperature / ° C

Clouds and Precipitation
Forecast for 2018-05-24 18:00 UTC. Updated an hour ago

Ground ~20,000 ft ~40,000 ft Winds

LOWI

Details ICAO LOWI (INN)
Name Innsbruck Kranebitten
Region Austria
Timezone Europe/Vienna (UTC+2.0)
Stats Elevation 1,906 ft / 581 m (AMSL)
Location 47.260226° 11.343967°
Runways 1
Magnetic Variation 3.072° E

METAR

LOWI 241820Z 11006KT 070V140 9999 FEW050 FEW060TCU SCT080 BKN140 18/12 Q1018 NOSIG

Decode

TAF

TAF LOWI 241715Z 2418/2518 08005KT 9999 FEW060 SCT120 BKN300 TX25/2514Z TN12/2504Z PROB30 TEMPO 2418/2420 SHRA FEW060TCU BKN080 BECMG 2420/2422 27007KT BECMG 2508/2510 09005KT

Decode

Departure Runways

ID Width Length Bearing (true) Bearing (mag) Surface Threshold Offset Overrun Length
08 148 ft / 45 m 6,545 ft / 1,995 m 81.02° 77.95° Asphalt 338 ft / 103 m 0 ft / 0 m
26 148 ft / 45 m 6,545 ft / 1,995 m 261.04° 257.97° Asphalt 0 ft / 0 m 0 ft / 0 m

UDYZ

Details ICAO UDYZ (EVN)
Name ZVARTNOTS
Region Armenia
Timezone Asia/Yerevan (UTC+4.0)
Stats Elevation 2,838 ft / 865 m (AMSL)
Location 40.147271° 44.395880°
Runways 1
Magnetic Variation 6.234° E

METAR

UDYZ 241830Z 06004KT 9999 SCT043 19/10 Q1014 R09/000070 NOSIG

Decode

TAF

TAF UDYZ 241107Z 2412/2512 24006KT 9999 SCT040 BKN100 TEMPO 2412/2418 VRB16G26KT -TSRA BKN040CB

Decode

Destination Runways

ID Width Length Bearing (true) Bearing (mag) Surface Threshold Offset Overrun Length
09 184 ft / 56 m 12,601 ft / 3,841 m 89.59° 83.36° Asphalt 0 ft / 0 m 0 ft / 0 m
27 184 ft / 56 m 12,601 ft / 3,841 m 269.62° 263.39° Asphalt 0 ft / 0 m 0 ft / 0 m

Approach Navaids

Runway Type Ident Frequency Range Bearing (true) Bearing (mag) Slope Elevation
09 Localiser IZR 108.10 MHz 18 nm / 33 km 89.83° 83.60° - 2,838 ft / 865 m (AMSL)
09 Glidescope IZR 108.10 MHz 10 nm / 19 km 89.61° 83.37° 2.67° 2,838 ft / 865 m (AMSL)

Popular Alternatives